Time;durP1;ratioP1;P1;durP2;ratioP2;P2;SDS_P1;SDS_P2;PMS_P1;PMS_P2;Temp;Humidity;BMP_temperature;BMP_pressure;BME280_temperature;BME280_humidity;BME280_pressure;Samples;Min_cycle;Max_cycle;Signal;HPM_P1;HPM_P2
2022/10/07 00:03:37;;;;;;;;;;;10.60;99.90;;;;;;12465110;28;20408;-83
2022/10/07 00:09:39;;;;;;;;;;;10.50;99.90;;;;;;12461346;28;19984;-83
2022/10/07 00:15:40;;;;;;;;;;;10.40;99.90;;;;;;12460694;28;19956;-84
2022/10/07 00:21:42;;;;;;;;;;;10.30;99.90;;;;;;12457951;28;19932;-84
2022/10/07 00:27:44;;;;;;;;;;;10.20;99.90;;;;;;12475568;28;19968;-84
2022/10/07 00:33:47;;;;;;;;;;;10.20;99.90;;;;;;12469583;28;19925;-84
2022/10/07 00:39:49;;;;;;;;;;;10.30;99.90;;;;;;12475028;28;20400;-84
2022/10/07 00:45:52;;;;;;;;;;;10.40;99.90;;;;;;12471110;28;19930;-83
2022/10/07 00:51:54;;;;;;;;;;;10.40;99.90;;;;;;12464995;28;19929;-84
2022/10/07 00:57:58;;;;;;;;;;;10.30;99.90;;;;;;12473237;28;19929;-83
2022/10/07 01:04:00;;;;;;;;;;;10.30;99.90;;;;;;12468277;28;19925;-84
2022/10/07 01:10:02;;;;;;;;;;;10.30;99.90;;;;;;12477553;28;19948;-84
2022/10/07 01:16:24;;;;;;;;;;;10.20;99.90;;;;;;12476347;28;19940;-84
2022/10/07 01:22:36;;;;;;;;;;;10.30;99.90;;;;;;12488809;28;20442;-84
2022/10/07 01:28:59;;;;;;;;;;;10.20;99.90;;;;;;12482807;28;20382;-84
2022/10/07 01:35:04;;;;;;;;;;;10.10;99.90;;;;;;12473405;28;19925;-83
2022/10/07 01:41:14;;;;;;;;;;;10.10;99.90;;;;;;12491744;28;19932;-84
2022/10/07 01:47:16;;;;;;;;;;;10.10;99.90;;;;;;12476353;28;19925;-84
2022/10/07 01:53:44;;;;;;;;;;;10.10;99.90;;;;;;12504291;28;19925;-84
2022/10/07 01:59:49;;;;;;;;;;;10.10;99.90;;;;;;12478112;28;19925;-83
2022/10/07 02:06:05;;;;;;;;;;;10.00;99.90;;;;;;12487949;28;19949;-84
2022/10/07 02:12:24;;;;;;;;;;;10.00;99.90;;;;;;12475522;28;19926;-84
2022/10/07 02:18:27;;;;;;;;;;;9.90;99.90;;;;;;12468640;28;19925;-84
2022/10/07 02:24:31;;;;;;;;;;;10.00;99.90;;;;;;12473508;28;19929;-84
2022/10/07 02:30:34;;;;;;;;;;;10.00;99.90;;;;;;12476357;28;20404;-84
2022/10/07 02:36:49;;;;;;;;;;;10.00;99.90;;;;;;12478368;28;19925;-84
2022/10/07 02:42:54;;;;;;;;;;;9.80;99.90;;;;;;12487371;28;19926;-84
2022/10/07 02:49:00;;;;;;;;;;;9.90;99.90;;;;;;12462837;28;19933;-84
2022/10/07 02:55:09;;;;;;;;;;;9.90;99.90;;;;;;12470058;28;19934;-84
2022/10/07 03:01:13;;;;;;;;;;;9.90;99.90;;;;;;12471544;28;19929;-84
2022/10/07 03:07:15;;;;;;;;;;;9.80;99.90;;;;;;12487852;28;20009;-84
2022/10/07 03:13:17;;;;;;;;;;;9.80;99.90;;;;;;12412689;28;19929;-84
2022/10/07 03:19:19;;;;;;;;;;;9.80;99.90;;;;;;12422925;28;19926;-84
2022/10/07 03:25:20;;;;;;;;;;;9.80;99.90;;;;;;12406023;28;19933;-84
2022/10/07 03:31:22;;;;;;;;;;;9.70;99.90;;;;;;12405453;28;19926;-84
2022/10/07 03:37:24;;;;;;;;;;;9.70;99.90;;;;;;12417654;28;19961;-84
2022/10/07 03:43:25;;;;;;;;;;;9.80;99.90;;;;;;12432388;28;19929;-84
2022/10/07 03:49:27;;;;;;;;;;;9.70;99.90;;;;;;12414752;28;20402;-84
2022/10/07 03:55:29;;;;;;;;;;;9.70;99.90;;;;;;12418988;28;20520;-84
2022/10/07 04:01:31;;;;;;;;;;;9.80;99.90;;;;;;12407235;28;20004;-84
2022/10/07 04:07:32;;;;;;;;;;;9.70;99.90;;;;;;12424851;28;19925;-84
2022/10/07 04:13:34;;;;;;;;;;;9.70;99.90;;;;;;12460366;28;19936;-84
2022/10/07 04:19:36;;;;;;;;;;;9.80;99.90;;;;;;12479421;28;19936;-84
2022/10/07 04:25:44;;;;;;;;;;;9.70;99.90;;;;;;12475285;28;19947;-84
2022/10/07 04:31:46;;;;;;;;;;;9.80;99.90;;;;;;12474541;28;19937;-84
2022/10/07 04:37:48;;;;;;;;;;;9.80;99.90;;;;;;12476249;28;19948;-83
2022/10/07 04:43:50;;;;;;;;;;;9.80;99.90;;;;;;12473199;28;19925;-84
2022/10/07 04:49:58;;;;;;;;;;;9.80;99.90;;;;;;12475483;28;19932;-83
2022/10/07 04:56:00;;;;;;;;;;;9.80;99.90;;;;;;12476458;28;19980;-84
2022/10/07 05:02:02;;;;;;;;;;;9.80;99.90;;;;;;12485965;28;19933;-84
2022/10/07 05:08:03;;;;;;;;;;;9.80;99.90;;;;;;12481226;28;20014;-84
2022/10/07 05:14:05;;;;;;;;;;;9.70;99.90;;;;;;12484596;28;20008;-84
2022/10/07 05:20:07;;;;;;;;;;;9.80;99.90;;;;;;12477677;28;19925;-84
2022/10/07 05:26:09;;;;;;;;;;;9.80;99.90;;;;;;12468600;28;19925;-84
2022/10/07 05:32:11;;;;;;;;;;;9.80;99.90;;;;;;12477147;28;19929;-85
2022/10/07 05:38:13;;;;;;;;;;;9.80;99.90;;;;;;12483911;28;20385;-84
2022/10/07 05:44:15;;;;;;;;;;;9.90;99.90;;;;;;12480309;28;19929;-84
2022/10/07 05:50:17;;;;;;;;;;;9.90;99.90;;;;;;12471815;28;20373;-84
2022/10/07 05:56:21;;;;;;;;;;;9.80;99.90;;;;;;12479877;28;19948;-84
2022/10/07 06:02:24;;;;;;;;;;;9.80;99.90;;;;;;12474505;28;19933;-85
2022/10/07 06:08:26;;;;;;;;;;;9.90;99.90;;;;;;12456771;28;20385;-84
2022/10/07 06:14:28;;;;;;;;;;;9.90;99.90;;;;;;12476056;28;19936;-84
2022/10/07 06:20:29;;;;;;;;;;;9.90;99.90;;;;;;12471147;28;19929;-84
2022/10/07 06:26:31;;;;;;;;;;;9.90;99.90;;;;;;12473197;28;19932;-84
2022/10/07 06:32:33;;;;;;;;;;;9.90;99.90;;;;;;12481467;28;19929;-84
2022/10/07 06:38:35;;;;;;;;;;;9.90;99.90;;;;;;12478533;28;20373;-84
2022/10/07 06:44:36;;;;;;;;;;;9.90;99.90;;;;;;12471688;28;20278;-84
2022/10/07 06:50:38;;;;;;;;;;;10.00;99.90;;;;;;12475123;28;19941;-84
2022/10/07 06:56:40;;;;;;;;;;;10.10;99.90;;;;;;12468782;28;20399;-84
2022/10/07 07:02:41;;;;;;;;;;;10.20;99.90;;;;;;12472833;28;20304;-84
2022/10/07 07:08:44;;;;;;;;;;;10.30;99.90;;;;;;12476636;28;19942;-85
2022/10/07 07:14:46;;;;;;;;;;;10.50;99.90;;;;;;12454857;28;20031;-85
2022/10/07 07:20:48;;;;;;;;;;;10.60;99.90;;;;;;12469933;28;19929;-84
2022/10/07 07:26:49;;;;;;;;;;;10.70;99.90;;;;;;12471322;28;19925;-85
2022/10/07 07:32:51;;;;;;;;;;;10.90;99.90;;;;;;12463431;28;20277;-84
2022/10/07 07:38:54;;;;;;;;;;;11.10;99.90;;;;;;12473670;28;19930;-84
2022/10/07 07:44:56;;;;;;;;;;;11.20;99.90;;;;;;12475156;28;19925;-85
2022/10/07 07:51:04;;;;;;;;;;;11.30;99.90;;;;;;12461345;28;20305;-84
2022/10/07 07:57:06;;;;;;;;;;;11.50;99.90;;;;;;12476230;28;19932;-84
2022/10/07 08:03:07;;;;;;;;;;;11.60;99.90;;;;;;12469917;28;19932;-84
2022/10/07 08:09:09;;;;;;;;;;;11.80;99.90;;;;;;12479072;28;19925;-84
2022/10/07 08:15:11;;;;;;;;;;;12.00;99.90;;;;;;12475056;28;20279;-84
2022/10/07 08:21:13;;;;;;;;;;;12.10;99.90;;;;;;12466693;28;19925;-85
2022/10/07 08:27:14;;;;;;;;;;;12.30;99.90;;;;;;12461685;28;19929;-85
2022/10/07 08:33:17;;;;;;;;;;;12.60;99.90;;;;;;12478797;28;20016;-85
2022/10/07 08:39:18;;;;;;;;;;;12.80;99.90;;;;;;12465108;28;19925;-85
2022/10/07 08:45:28;;;;;;;;;;;12.90;99.90;;;;;;12472948;28;19949;-84
2022/10/07 08:51:51;;;;;;;;;;;13.10;99.90;;;;;;12457832;28;19930;-85
2022/10/07 08:58:04;;;;;;;;;;;13.20;99.90;;;;;;12458813;28;20749;-85
2022/10/07 09:04:20;;;;;;;;;;;13.40;99.90;;;;;;12457280;28;19933;-85
2022/10/07 09:10:22;;;;;;;;;;;13.60;99.90;;;;;;12457319;28;19926;-84
2022/10/07 09:16:26;;;;;;;;;;;14.00;99.90;;;;;;12464855;28;19925;-86
2022/10/07 09:22:33;;;;;;;;;;;14.10;99.90;;;;;;12461359;28;20373;-85
2022/10/07 09:28:35;;;;;;;;;;;14.40;99.90;;;;;;12473270;28;19933;-85
2022/10/07 09:34:37;;;;;;;;;;;14.50;99.90;;;;;;12473466;28;19925;-86
2022/10/07 09:47:12;;;;;;;;;;;15.00;99.90;;;;;;12463538;28;19926;-86
2022/10/07 09:53:19;;;;;;;;;;;15.30;99.90;;;;;;12479494;28;19926;-85
2022/10/07 09:59:30;;;;;;;;;;;15.50;99.90;;;;;;12462528;28;19932;-86
2022/10/07 10:05:34;;;;;;;;;;;15.50;99.90;;;;;;12471457;28;20370;-85
2022/10/07 10:11:35;;;;;;;;;;;15.60;99.90;;;;;;12481003;28;20393;-85
2022/10/07 10:17:38;;;;;;;;;;;15.40;99.90;;;;;;12470837;28;19925;-85
2022/10/07 10:23:44;;;;;;;;;;;15.70;99.90;;;;;;12476694;28;19932;-85
2022/10/07 10:29:59;;;;;;;;;;;15.70;99.90;;;;;;12464049;28;20400;-85
2022/10/07 10:36:07;;;;;;;;;;;16.00;99.90;;;;;;12469614;28;20373;-86
2022/10/07 10:42:11;;;;;;;;;;;16.00;99.90;;;;;;12480808;28;20300;-85
2022/10/07 10:48:16;;;;;;;;;;;16.00;99.90;;;;;;12480122;28;19932;-86
2022/10/07 10:54:23;;;;;;;;;;;16.10;99.90;;;;;;12475472;28;19925;-85
2022/10/07 11:00:31;;;;;;;;;;;16.40;99.90;;;;;;12483344;28;19926;-86
2022/10/07 11:06:34;;;;;;;;;;;16.70;99.90;;;;;;12479101;28;19936;-86
2022/10/07 11:12:38;;;;;;;;;;;17.00;99.90;;;;;;12476215;28;20309;-88
2022/10/07 11:18:44;;;;;;;;;;;17.00;99.90;;;;;;12471232;28;19935;-87
2022/10/07 11:24:49;;;;;;;;;;;17.00;99.90;;;;;;12455659;28;19929;-87
2022/10/07 11:31:03;;;;;;;;;;;16.80;99.90;;;;;;12462167;28;19929;-88
2022/10/07 11:37:14;;;;;;;;;;;17.40;99.90;;;;;;12472123;28;19925;-88
2022/10/07 11:43:27;;;;;;;;;;;17.60;99.90;;;;;;12483606;28;19930;-87
2022/10/07 11:49:33;;;;;;;;;;;17.60;99.90;;;;;;12470483;28;19929;-88
2022/10/07 11:55:54;;;;;;;;;;;17.50;99.90;;;;;;12383395;23;19937;-39
2022/10/07 12:01:56;;;;;;;;;;;17.60;99.90;;;;;;12341416;28;20064;-38
2022/10/07 12:08:17;;;;;;;;;;;17.90;99.90;;;;;;12350140;28;19934;-38
2022/10/07 12:14:28;;;;;;;;;;;17.90;99.90;;;;;;12318556;28;20291;-38
2022/10/07 12:20:36;;;;;;;;;;;17.80;99.90;;;;;;12306664;28;19926;-38
2022/10/07 12:26:40;;;;;;;;;;;17.70;99.90;;;;;;12309560;28;19957;-38
2022/10/07 12:32:59;;;;;;;;;;;17.90;99.90;;;;;;12312723;28;19933;-38
2022/10/07 12:39:01;;;;;;;;;;;17.90;99.90;;;;;;12307832;28;19931;-38
2022/10/07 12:45:03;;;;;;;;;;;17.90;99.90;;;;;;12309437;28;19937;-38
2022/10/07 12:51:10;;;;;;;;;;;17.70;99.90;;;;;;12308160;28;20082;-38
2022/10/07 12:57:15;;;;;;;;;;;17.60;99.90;;;;;;12300753;28;19926;-39
2022/10/07 13:03:33;;;;;;;;;;;17.50;99.90;;;;;;12313231;28;19927;-38
2022/10/07 13:10:02;;;;;;;;;;;17.30;99.90;;;;;;12318422;28;20302;-38
2022/10/07 13:16:09;;;;;;;;;;;17.20;99.90;;;;;;12365637;28;20058;-38
2022/10/07 13:22:14;;;;;;;;;;;17.40;99.90;;;;;;12368124;28;19933;-38
2022/10/07 13:28:17;;;;;;;;;;;17.50;99.90;;;;;;12353415;28;19930;-38
2022/10/07 13:34:19;;;;;;;;;;;17.40;99.90;;;;;;12364276;28;19926;-39
2022/10/07 13:40:25;;;;;;;;;;;17.50;99.90;;;;;;12360739;28;19930;-38
2022/10/07 13:46:28;;;;;;;;;;;17.40;99.90;;;;;;12366282;28;19930;-37
2022/10/07 13:52:38;;;;;;;;;;;17.30;99.90;;;;;;12370537;28;19930;-37
2022/10/07 13:58:40;;;;;;;;;;;17.30;99.90;;;;;;12372603;28;20305;-38
2022/10/07 14:05:07;;;;;;;;;;;17.20;99.90;;;;;;12358166;28;19937;-38
2022/10/07 14:11:19;;;;;;;;;;;17.00;99.90;;;;;;12335247;28;20682;-37
2022/10/07 14:17:26;;;;;;;;;;;17.00;99.90;;;;;;12363596;28;19935;-37
2022/10/07 14:23:33;;;;;;;;;;;16.70;99.90;;;;;;12377562;28;19934;-38
2022/10/07 14:29:36;;;;;;;;;;;16.70;99.90;;;;;;12369076;28;19926;-38
2022/10/07 14:35:39;;;;;;;;;;;16.60;99.90;;;;;;12361660;28;19930;-38
2022/10/07 14:41:41;;;;;;;;;;;16.50;99.90;;;;;;12366057;28;19937;-38
2022/10/07 14:47:45;;;;;;;;;;;16.60;99.90;;;;;;12365177;28;19934;-38
2022/10/07 14:53:49;;;;;;;;;;;16.60;99.90;;;;;;12367308;28;20302;-37
2022/10/07 14:59:51;;;;;;;;;;;16.50;99.90;;;;;;12366621;28;20082;-38
2022/10/07 15:05:53;;;;;;;;;;;16.50;99.90;;;;;;12359748;28;19933;-38
2022/10/07 15:11:56;;;;;;;;;;;16.60;99.90;;;;;;12362759;28;19975;-38
2022/10/07 15:17:57;;;;;;;;;;;16.50;99.90;;;;;;12362383;28;20373;-38
2022/10/07 15:24:00;;;;;;;;;;;16.40;99.90;;;;;;12358235;28;19927;-38
2022/10/07 15:30:04;;;;;;;;;;;16.40;99.90;;;;;;12359548;28;19930;-38
2022/10/07 15:36:06;;;;;;;;;;;16.30;99.90;;;;;;12359460;28;19983;-38
2022/10/07 15:42:08;;;;;;;;;;;16.00;99.90;;;;;;12365138;28;19930;-38
2022/10/07 15:48:10;;;;;;;;;;;16.00;99.90;;;;;;12357669;28;19976;-41
2022/10/07 15:54:11;;;;;;;;;;;16.00;99.90;;;;;;12354703;28;19929;-37
2022/10/07 16:00:14;;;;;;;;;;;15.80;99.90;;;;;;12366497;28;19926;-38
2022/10/07 16:06:17;;;;;;;;;;;15.60;99.90;;;;;;12361514;28;19929;-37
2022/10/07 16:12:19;;;;;;;;;;;15.40;99.90;;;;;;12364773;28;20283;-38
2022/10/07 16:18:20;;;;;;;;;;;15.20;99.90;;;;;;12350548;28;19930;-38
2022/10/07 16:24:22;;;;;;;;;;;15.10;99.90;;;;;;12355499;28;20294;-37
2022/10/07 16:30:39;;;;;;;;;;;14.90;99.90;;;;;;12361333;28;20062;-37
2022/10/07 16:36:43;;;;;;;;;;;14.80;99.90;;;;;;12353465;28;19937;-37
2022/10/07 16:42:49;;;;;;;;;;;14.60;99.90;;;;;;12361583;28;20274;-37
2022/10/07 16:48:51;;;;;;;;;;;14.50;99.90;;;;;;12359883;28;20282;-37
2022/10/07 16:54:52;;;;;;;;;;;14.40;99.90;;;;;;12357963;28;19926;-37
2022/10/07 17:00:59;;;;;;;;;;;14.20;99.90;;;;;;12357640;28;20030;-37
2022/10/07 17:07:01;;;;;;;;;;;14.10;99.90;;;;;;12355218;28;19933;-37
2022/10/07 17:13:03;;;;;;;;;;;14.10;99.90;;;;;;12363183;28;20420;-37
2022/10/07 17:19:05;;;;;;;;;;;13.90;99.90;;;;;;12356253;28;19934;-37
2022/10/07 17:25:07;;;;;;;;;;;13.80;99.90;;;;;;12356401;28;19937;-38
2022/10/07 17:31:10;;;;;;;;;;;13.70;99.90;;;;;;12361855;28;19926;-38
2022/10/07 17:37:12;;;;;;;;;;;13.70;99.90;;;;;;12356926;28;19948;-37
2022/10/07 17:43:14;;;;;;;;;;;13.70;99.90;;;;;;12348543;28;20294;-37
2022/10/07 17:49:15;;;;;;;;;;;13.60;99.90;;;;;;12361062;28;19931;-37
2022/10/07 17:55:17;;;;;;;;;;;13.60;99.90;;;;;;12363281;28;19933;-37
2022/10/07 18:01:25;;;;;;;;;;;13.50;99.90;;;;;;12354206;28;19933;-37
2022/10/07 18:07:28;;;;;;;;;;;13.50;99.90;;;;;;12378644;28;19946;-37
2022/10/07 18:19:50;;;;;;;;;;;13.30;99.90;;;;;;12358195;28;20378;-37
2022/10/07 18:25:53;;;;;;;;;;;13.20;99.90;;;;;;12359393;28;20597;-37
2022/10/07 18:32:01;;;;;;;;;;;13.10;99.90;;;;;;12361583;28;19933;-37
2022/10/07 18:38:02;;;;;;;;;;;12.90;99.90;;;;;;12361814;28;20012;-37
2022/10/07 18:44:05;;;;;;;;;;;12.90;99.90;;;;;;12361839;28;19943;-37
2022/10/07 18:50:07;;;;;;;;;;;12.80;99.90;;;;;;12362549;28;19937;-37
2022/10/07 18:56:16;;;;;;;;;;;12.50;99.90;;;;;;12346861;28;19930;-38
2022/10/07 19:02:18;;;;;;;;;;;12.50;99.90;;;;;;12366534;28;19937;-37
2022/10/07 19:08:20;;;;;;;;;;;12.70;99.90;;;;;;12366555;28;20024;-37
2022/10/07 19:14:24;;;;;;;;;;;12.70;99.90;;;;;;12360365;28;19930;-37
2022/10/07 19:20:26;;;;;;;;;;;12.70;99.90;;;;;;12359843;28;19926;-37
2022/10/07 19:26:29;;;;;;;;;;;12.70;99.90;;;;;;12358921;28;19995;-37
2022/10/07 19:32:32;;;;;;;;;;;12.60;99.90;;;;;;12360191;28;19934;-37
2022/10/07 19:38:36;;;;;;;;;;;12.70;99.90;;;;;;12357667;28;20386;-37
2022/10/07 19:44:38;;;;;;;;;;;12.60;99.90;;;;;;12362904;28;19945;-37
2022/10/07 19:50:40;;;;;;;;;;;12.40;99.90;;;;;;12361033;28;20385;-37
2022/10/07 19:56:43;;;;;;;;;;;12.40;99.90;;;;;;12355071;28;19937;-37
2022/10/07 20:02:47;;;;;;;;;;;12.30;99.90;;;;;;12356630;28;20387;-37
2022/10/07 20:08:49;;;;;;;;;;;12.20;99.90;;;;;;12360937;28;19933;-37
2022/10/07 20:14:50;;;;;;;;;;;12.30;99.90;;;;;;12355523;28;19926;-37
2022/10/07 20:20:56;;;;;;;;;;;12.30;99.90;;;;;;12355682;28;19926;-37
2022/10/07 20:26:58;;;;;;;;;;;12.40;99.90;;;;;;12362109;28;19937;-37
2022/10/07 20:32:59;;;;;;;;;;;12.40;99.90;;;;;;12356891;28;20290;-37
2022/10/07 20:45:25;;;;;;;;;;;12.30;99.90;;;;;;12358399;28;19948;-37
2022/10/07 20:51:27;;;;;;;;;;;12.40;99.90;;;;;;12363154;28;19926;-37
2022/10/07 20:57:34;;;;;;;;;;;12.30;99.90;;;;;;12361999;28;20309;-37
2022/10/07 21:03:37;;;;;;;;;;;12.10;99.90;;;;;;12357950;28;19930;-37
2022/10/07 21:09:38;;;;;;;;;;;12.10;99.90;;;;;;12359261;28;19937;-37
2022/10/07 21:15:40;;;;;;;;;;;12.10;99.90;;;;;;12350391;28;20069;-37
2022/10/07 21:21:42;;;;;;;;;;;12.20;99.90;;;;;;12360542;28;20414;-37
2022/10/07 21:27:44;;;;;;;;;;;12.20;99.90;;;;;;12359452;28;19932;-37
2022/10/07 21:33:47;;;;;;;;;;;12.20;99.90;;;;;;12366867;28;19934;-37
2022/10/07 21:39:49;;;;;;;;;;;12.10;99.90;;;;;;12367476;28;19930;-37
2022/10/07 21:45:51;;;;;;;;;;;12.10;99.90;;;;;;12361980;28;19929;-37
2022/10/07 21:51:53;;;;;;;;;;;12.10;99.90;;;;;;12366893;28;19930;-37
2022/10/07 21:57:54;;;;;;;;;;;11.90;99.90;;;;;;12369201;28;19937;-37
2022/10/07 22:04:00;;;;;;;;;;;11.80;99.90;;;;;;12365102;28;20302;-37
2022/10/07 22:10:02;;;;;;;;;;;11.80;99.90;;;;;;12362955;28;19980;-37
2022/10/07 22:16:05;;;;;;;;;;;11.90;99.90;;;;;;12362065;28;19927;-37
2022/10/07 22:22:07;;;;;;;;;;;11.90;99.90;;;;;;12360807;28;19926;-37
2022/10/07 22:28:10;;;;;;;;;;;11.80;99.90;;;;;;12364441;28;19934;-37
2022/10/07 22:35:26;;;;;;;;;;;11.80;99.90;;;;;;12352040;28;19980;-37
2022/10/07 22:40:37;;;;;;;;;;;11.80;99.90;;;;;;12368214;28;19926;-37
2022/10/07 22:46:39;;;;;;;;;;;11.80;99.90;;;;;;12364645;28;19936;-37
2022/10/07 22:52:41;;;;;;;;;;;11.80;99.90;;;;;;12361432;28;20016;-37
2022/10/07 22:58:47;;;;;;;;;;;11.80;99.90;;;;;;12362231;28;20014;-37
2022/10/07 23:04:49;;;;;;;;;;;11.80;99.90;;;;;;12360436;28;19937;-37
2022/10/07 23:10:58;;;;;;;;;;;11.70;99.90;;;;;;12361777;28;19926;-37
2022/10/07 23:17:01;;;;;;;;;;;11.60;99.90;;;;;;12366074;28;20484;-37
2022/10/07 23:23:03;;;;;;;;;;;11.50;99.90;;;;;;12363484;28;20298;-37
2022/10/07 23:29:06;;;;;;;;;;;11.40;99.90;;;;;;12360436;28;20433;-37
2022/10/07 23:35:08;;;;;;;;;;;11.30;99.90;;;;;;12360699;28;19934;-37
2022/10/07 23:41:11;;;;;;;;;;;11.30;99.90;;;;;;12369645;28;19933;-37
2022/10/07 23:47:12;;;;;;;;;;;11.30;99.90;;;;;;12359251;28;19926;-37
2022/10/07 23:53:14;;;;;;;;;;;11.20;99.90;;;;;;12354929;28;20270;-37
2022/10/07 23:59:17;;;;;;;;;;;11.10;99.90;;;;;;12354707;28;19942;-37
